Time;durP1;ratioP1;P1;durP2;ratioP2;P2;SDS_P1;SDS_P2;PMS_P1;PMS_P2;Temp;Humidity;BMP_temperature;BMP_pressure;BME280_temperature;BME280_humidity;BME280_pressure;Samples;Min_cycle;Max_cycle;Signal;HPM_P1;HPM_P2
2020/12/06 00:01:20;;;;;;;16.75;12.65;;;6.80;91.30;;;;;;5008562;28;20152;-54
2020/12/06 00:03:45;;;;;;;15.80;12.02;;;6.70;91.30;;;;;;5012572;28;20030;-55
2020/12/06 00:06:11;;;;;;;21.58;13.40;;;6.70;91.30;;;;;;5009022;28;20537;-55
2020/12/06 00:08:38;;;;;;;16.25;11.95;;;6.70;91.40;;;;;;5007968;28;20109;-55
2020/12/06 00:11:04;;;;;;;14.27;12.10;;;6.70;91.40;;;;;;5011068;28;20092;-55
2020/12/06 00:13:30;;;;;;;14.60;11.77;;;6.70;91.40;;;;;;5009041;28;20038;-56
2020/12/06 00:15:56;;;;;;;19.13;12.02;;;6.70;91.40;;;;;;5011326;28;20056;-56
2020/12/06 00:18:21;;;;;;;15.32;12.65;;;6.70;91.40;;;;;;5003687;28;20109;-54
2020/12/06 00:20:46;;;;;;;14.85;12.52;;;6.70;91.40;;;;;;5009199;28;20034;-55
2020/12/06 00:23:12;;;;;;;18.13;12.45;;;6.70;91.40;;;;;;5015733;28;20061;-55
2020/12/06 00:25:38;;;;;;;17.40;12.27;;;6.70;91.40;;;;;;5009728;28;20613;-56
2020/12/06 00:28:03;;;;;;;15.65;11.77;;;6.70;91.40;;;;;;5009323;28;20441;-55
2020/12/06 00:30:29;;;;;;;16.27;12.77;;;6.70;91.40;;;;;;5002827;28;20590;-55
2020/12/06 00:32:54;;;;;;;15.02;11.98;;;6.60;91.40;;;;;;5007575;28;20053;-55
2020/12/06 00:35:20;;;;;;;15.93;11.82;;;6.70;91.40;;;;;;5007290;28;20065;-54
2020/12/06 00:37:45;;;;;;;15.32;13.30;;;6.70;91.40;;;;;;5008109;28;20109;-55
2020/12/06 00:40:11;;;;;;;15.35;12.05;;;6.60;91.40;;;;;;5002789;28;20034;-54
2020/12/06 00:42:36;;;;;;;17.73;11.43;;;6.70;91.40;;;;;;5007571;28;20053;-56
2020/12/06 00:45:03;;;;;;;14.98;12.02;;;6.70;91.40;;;;;;5006450;28;20130;-55
2020/12/06 00:47:29;;;;;;;15.07;12.07;;;6.70;91.40;;;;;;5007406;28;20034;-56
2020/12/06 00:49:54;;;;;;;15.68;12.00;;;6.70;91.40;;;;;;5009371;28;20477;-56
2020/12/06 00:52:20;;;;;;;14.65;12.32;;;6.60;91.40;;;;;;5009006;28;20034;-55
2020/12/06 00:54:45;;;;;;;16.65;12.25;;;6.60;91.40;;;;;;5007694;28;20063;-55
2020/12/06 00:57:11;;;;;;;15.63;11.82;;;6.60;91.40;;;;;;5007674;28;20033;-55
2020/12/06 00:59:36;;;;;;;14.13;11.90;;;6.60;91.40;;;;;;5007644;28;20073;-55
2020/12/06 01:02:04;;;;;;;15.18;12.73;;;6.60;91.40;;;;;;5003615;28;20049;-55
2020/12/06 01:04:30;;;;;;;16.35;12.93;;;6.60;91.40;;;;;;5007683;28;20684;-55
2020/12/06 01:06:58;;;;;;;13.88;11.65;;;6.60;91.40;;;;;;5008852;28;20037;-55
2020/12/06 01:09:24;;;;;;;15.98;12.52;;;6.60;91.70;;;;;;5007085;28;20025;-56
2020/12/06 01:11:49;;;;;;;16.30;11.85;;;6.60;91.40;;;;;;5007197;28;20454;-56
2020/12/06 01:14:15;;;;;;;16.27;12.38;;;6.60;91.70;;;;;;5006321;28;20084;-55
2020/12/06 01:16:40;;;;;;;13.90;12.15;;;6.60;91.50;;;;;;5007175;28;20026;-55
2020/12/06 01:19:06;;;;;;;15.27;12.80;;;6.60;91.50;;;;;;5005540;28;20549;-55
2020/12/06 01:21:31;;;;;;;16.48;12.00;;;6.60;91.50;;;;;;5006473;28;20672;-55
2020/12/06 01:23:57;;;;;;;14.50;12.45;;;6.60;91.50;;;;;;5006457;28;20038;-55
2020/12/06 01:26:22;;;;;;;17.33;12.13;;;6.60;91.50;;;;;;5006304;28;20038;-55
2020/12/06 01:28:48;;;;;;;17.15;12.50;;;6.60;91.80;;;;;;5008549;28;20076;-55
2020/12/06 01:31:13;;;;;;;17.27;13.07;;;6.60;91.50;;;;;;5004411;28;20140;-55
2020/12/06 01:33:39;;;;;;;15.05;12.75;;;6.50;91.50;;;;;;5007102;28;20555;-55
2020/12/06 01:36:04;;;;;;;13.90;12.35;;;6.50;91.50;;;;;;5006063;28;20040;-55
2020/12/06 01:38:30;;;;;;;14.95;12.48;;;6.60;91.50;;;;;;5003898;28;20052;-55
2020/12/06 01:40:55;;;;;;;14.65;12.75;;;6.60;91.50;;;;;;5007147;28;20041;-56
2020/12/06 01:43:21;;;;;;;15.82;12.90;;;6.50;91.50;;;;;;5008294;28;20088;-55
2020/12/06 01:45:46;;;;;;;13.88;12.20;;;6.50;91.50;;;;;;5007305;28;20026;-55
2020/12/06 01:48:12;;;;;;;13.93;12.07;;;6.60;91.50;;;;;;5008447;28;20057;-56
2020/12/06 01:50:38;;;;;;;19.67;12.98;;;6.60;91.50;;;;;;4989657;28;20504;-56
2020/12/06 01:53:03;;;;;;;14.68;11.60;;;6.50;91.50;;;;;;5006308;28;20431;-55
2020/12/06 01:55:29;;;;;;;16.05;14.25;;;6.50;91.50;;;;;;4990883;28;20018;-55
2020/12/06 01:58:03;;;;;;;14.18;11.60;;;6.50;91.50;;;;;;4991038;28;20506;-55
2020/12/06 02:00:28;;;;;;;13.98;11.85;;;6.50;91.50;;;;;;5005698;28;20037;-55
2020/12/06 02:02:54;;;;;;;16.95;13.10;;;6.50;91.50;;;;;;5005429;28;20042;-55
2020/12/06 02:05:19;;;;;;;15.52;12.82;;;6.50;91.50;;;;;;5012117;28;20490;-55
2020/12/06 02:07:45;;;;;;;15.50;12.98;;;6.50;91.50;;;;;;5012641;28;20045;-55
2020/12/06 02:10:10;;;;;;;14.18;11.75;;;6.50;91.50;;;;;;5015907;28;20044;-55
2020/12/06 02:12:36;;;;;;;13.82;12.10;;;6.50;91.50;;;;;;5011707;28;20033;-55
2020/12/06 02:15:01;;;;;;;14.15;11.95;;;6.50;91.50;;;;;;5010134;28;20030;-56
2020/12/06 02:17:27;;;;;;;14.38;11.88;;;6.50;91.50;;;;;;5023356;28;20115;-56
2020/12/06 02:19:54;;;;;;;15.80;12.40;;;6.50;91.50;;;;;;4991699;28;20493;-56
2020/12/06 02:22:19;;;;;;;14.00;12.48;;;6.50;91.50;;;;;;5014666;28;21066;-56
2020/12/06 02:24:45;;;;;;;15.40;11.82;;;6.50;91.50;;;;;;5017355;28;20092;-55
2020/12/06 02:27:10;;;;;;;14.73;12.57;;;6.50;91.50;;;;;;5011826;28;20038;-55
2020/12/06 02:29:36;;;;;;;14.95;12.68;;;6.50;91.50;;;;;;5011657;28;20553;-55
2020/12/06 02:32:01;;;;;;;13.95;10.98;;;6.50;91.50;;;;;;5010756;28;20583;-55
2020/12/06 02:34:27;;;;;;;16.42;12.73;;;6.50;91.50;;;;;;5017764;28;20058;-56
2020/12/06 02:36:53;;;;;;;17.00;13.43;;;6.40;91.80;;;;;;5015133;28;20126;-56
2020/12/06 02:39:18;;;;;;;13.23;11.82;;;6.40;91.50;;;;;;5011693;28;20033;-55
2020/12/06 02:41:44;;;;;;;14.15;12.25;;;6.40;91.50;;;;;;5010452;28;20030;-55
2020/12/06 02:44:11;;;;;;;15.75;11.77;;;6.40;91.50;;;;;;5017256;28;20038;-55
2020/12/06 02:46:37;;;;;;;14.45;12.30;;;6.40;91.50;;;;;;5015482;28;20041;-55
2020/12/06 02:49:03;;;;;;;14.38;12.10;;;6.40;91.50;;;;;;5012611;28;20041;-55
2020/12/06 02:51:29;;;;;;;15.10;12.02;;;6.40;91.50;;;;;;5012130;28;20025;-54
2020/12/06 02:53:54;;;;;;;14.20;11.73;;;6.40;91.50;;;;;;5010953;28;20351;-55
2020/12/06 02:56:20;;;;;;;13.63;11.95;;;6.40;91.50;;;;;;5011529;28;20056;-55
2020/12/06 02:58:45;;;;;;;14.07;12.43;;;6.40;91.50;;;;;;5009381;28;20052;-56
2020/12/06 03:01:11;;;;;;;14.30;11.70;;;6.40;91.50;;;;;;5010123;28;20105;-55
2020/12/06 03:03:38;;;;;;;14.32;12.20;;;6.40;91.50;;;;;;5010468;28;20050;-56
2020/12/06 03:06:03;;;;;;;15.32;11.93;;;6.40;91.50;;;;;;5013533;28;20096;-56
2020/12/06 03:08:29;;;;;;;13.05;11.65;;;6.40;91.50;;;;;;5008361;28;20037;-55
2020/12/06 03:10:55;;;;;;;14.77;12.27;;;6.40;91.50;;;;;;5009231;28;20026;-56
2020/12/06 03:13:20;;;;;;;13.55;11.77;;;6.40;91.50;;;;;;5011026;28;20022;-56
2020/12/06 03:15:46;;;;;;;14.27;11.98;;;6.40;91.50;;;;;;5010802;28;20033;-56
2020/12/06 03:18:11;;;;;;;12.25;10.95;;;6.40;91.60;;;;;;5009125;28;20037;-56
2020/12/06 03:20:37;;;;;;;14.65;12.32;;;6.40;91.60;;;;;;5008367;28;20494;-55
2020/12/06 03:23:02;;;;;;;14.35;11.52;;;6.40;91.60;;;;;;5009508;28;20050;-56
2020/12/06 03:25:28;;;;;;;15.30;12.07;;;6.40;91.60;;;;;;5010014;28;20037;-56
2020/12/06 03:27:53;;;;;;;13.07;11.23;;;6.40;91.60;;;;;;5009490;28;20041;-56
2020/12/06 03:30:19;;;;;;;14.55;11.40;;;6.30;91.50;;;;;;5008620;28;20397;-56
2020/12/06 03:32:44;;;;;;;12.82;11.45;;;6.30;91.80;;;;;;5009796;28;20064;-56
2020/12/06 03:35:10;;;;;;;13.90;11.52;;;6.30;91.50;;;;;;4991544;28;20076;-55
2020/12/06 03:37:35;;;;;;;12.60;10.55;;;6.40;91.50;;;;;;5008408;28;20036;-55
2020/12/06 03:40:01;;;;;;;12.90;11.05;;;6.30;91.50;;;;;;5008239;28;20033;-56
2020/12/06 03:42:26;;;;;;;12.93;11.43;;;6.30;91.50;;;;;;5010875;28;20034;-56
2020/12/06 03:44:52;;;;;;;13.65;11.30;;;6.30;91.50;;;;;;5009294;28;20049;-55
2020/12/06 03:47:18;;;;;;;12.88;10.48;;;6.30;91.50;;;;;;5009156;28;20037;-56
2020/12/06 03:49:44;;;;;;;13.77;11.80;;;6.30;91.50;;;;;;5009567;28;20429;-56
2020/12/06 03:52:09;;;;;;;12.43;10.23;;;6.20;91.50;;;;;;5009017;28;20057;-55
2020/12/06 03:54:35;;;;;;;12.35;11.00;;;6.20;91.40;;;;;;5009224;28;20057;-56
2020/12/06 03:57:00;;;;;;;11.90;10.30;;;6.30;91.50;;;;;;5008702;28;20038;-56
2020/12/06 03:59:26;;;;;;;14.88;11.73;;;6.20;91.50;;;;;;5008570;28;20040;-56
2020/12/06 04:01:51;;;;;;;12.73;11.32;;;6.20;91.50;;;;;;5005844;28;20080;-55
2020/12/06 04:04:17;;;;;;;12.02;10.57;;;6.20;91.40;;;;;;5010256;28;20070;-55
2020/12/06 04:06:42;;;;;;;12.70;10.82;;;6.20;91.50;;;;;;5010506;28;20072;-56
2020/12/06 04:09:08;;;;;;;12.13;10.82;;;6.20;91.50;;;;;;5011168;28;20084;-56
2020/12/06 04:11:33;;;;;;;11.60;10.38;;;6.20;91.50;;;;;;5010242;28;20381;-55
2020/12/06 04:13:59;;;;;;;12.10;10.43;;;6.20;91.50;;;;;;5008037;28;20124;-55
2020/12/06 04:16:24;;;;;;;13.00;9.93;;;6.20;91.50;;;;;;5009187;28;20549;-55
2020/12/06 04:18:50;;;;;;;11.52;9.93;;;6.20;91.50;;;;;;5009518;28;20050;-56
2020/12/06 04:21:15;;;;;;;14.15;10.70;;;6.10;91.50;;;;;;5008779;28;20026;-55
2020/12/06 04:23:41;;;;;;;12.13;10.32;;;6.20;91.60;;;;;;5010252;28;20021;-55
2020/12/06 04:26:06;;;;;;;12.60;10.25;;;6.10;91.50;;;;;;5008906;28;20142;-54
2020/12/06 04:28:32;;;;;;;11.82;10.43;;;6.20;91.60;;;;;;5023577;28;20041;-56
2020/12/06 04:30:58;;;;;;;11.88;9.85;;;6.10;91.60;;;;;;5008042;28;20029;-56
2020/12/06 04:33:23;;;;;;;11.48;10.15;;;6.10;91.60;;;;;;5010004;28;20014;-56
2020/12/06 04:35:49;;;;;;;10.70;9.60;;;6.10;91.60;;;;;;5009544;28;20029;-57
2020/12/06 04:38:14;;;;;;;12.57;10.73;;;6.10;91.60;;;;;;5008532;28;20037;-56
2020/12/06 04:40:40;;;;;;;11.38;9.57;;;6.10;91.60;;;;;;5007265;28;20041;-56
2020/12/06 04:43:06;;;;;;;10.30;9.13;;;6.10;91.50;;;;;;5007774;28;20531;-55
2020/12/06 04:45:31;;;;;;;10.65;9.55;;;6.00;91.50;;;;;;5009488;28;20030;-55
2020/12/06 04:48:00;;;;;;;10.82;9.63;;;6.10;91.60;;;;;;5008117;28;20092;-56
2020/12/06 04:50:33;;;;;;;11.80;9.75;;;6.10;91.50;;;;;;5008185;28;20551;-55
2020/12/06 04:53:02;;;;;;;11.63;9.73;;;6.00;91.50;;;;;;5006366;28;20046;-55
2020/12/06 04:55:29;;;;;;;10.93;9.60;;;6.00;91.50;;;;;;5003796;28;20026;-56
2020/12/06 04:57:56;;;;;;;12.20;9.32;;;6.00;91.60;;;;;;5003053;28;20034;-56
2020/12/06 05:00:31;;;;;;;10.32;9.30;;;6.00;91.60;;;;;;5008188;28;20049;-56
2020/12/06 05:02:58;;;;;;;10.52;9.43;;;6.00;91.60;;;;;;4990584;28;20050;-55
2020/12/06 05:05:23;;;;;;;10.57;9.25;;;6.00;91.60;;;;;;5000356;28;20034;-56
2020/12/06 05:07:49;;;;;;;10.73;9.57;;;6.00;91.50;;;;;;5021902;28;20045;-56
2020/12/06 05:10:14;;;;;;;9.88;8.45;;;6.00;91.50;;;;;;4991650;28;20096;-56
2020/12/06 05:12:40;;;;;;;11.35;10.02;;;6.00;91.60;;;;;;4991405;28;20034;-56
2020/12/06 05:15:05;;;;;;;10.48;9.38;;;6.00;91.60;;;;;;5007582;28;20057;-55
2020/12/06 05:17:31;;;;;;;11.05;9.27;;;6.00;91.50;;;;;;5008516;28;20029;-55
2020/12/06 05:20:08;;;;;;;10.05;8.57;;;6.00;91.60;;;;;;5021239;28;20046;-56
2020/12/06 05:22:34;;;;;;;10.45;9.38;;;5.90;91.50;;;;;;5006454;28;20477;-56
2020/12/06 05:24:59;;;;;;;10.48;9.35;;;5.90;91.50;;;;;;5009088;28;20022;-56
2020/12/06 05:27:25;;;;;;;12.55;10.13;;;5.90;91.60;;;;;;5007241;28;20056;-56
2020/12/06 05:29:50;;;;;;;11.23;9.75;;;5.90;91.60;;;;;;5007258;28;20508;-56
2020/12/06 05:32:16;;;;;;;11.32;9.20;;;5.90;91.60;;;;;;5005279;28;20046;-55
2020/12/06 05:34:41;;;;;;;11.27;10.15;;;5.90;91.60;;;;;;5007993;28;20025;-56
2020/12/06 05:37:07;;;;;;;11.18;9.27;;;5.80;91.50;;;;;;5006749;28;20034;-56
2020/12/06 05:39:32;;;;;;;10.35;9.13;;;5.80;91.60;;;;;;4989921;28;20493;-56
2020/12/06 05:41:58;;;;;;;11.35;10.15;;;5.80;91.60;;;;;;5023759;28;20101;-55
2020/12/06 05:44:24;;;;;;;10.85;9.75;;;5.80;91.60;;;;;;5015493;28;20123;-57
2020/12/06 05:46:49;;;;;;;14.02;10.32;;;5.80;91.60;;;;;;5007652;28;20249;-57
2020/12/06 05:49:20;;;;;;;10.35;8.93;;;5.80;91.60;;;;;;5007203;28;20113;-56
2020/12/06 05:51:52;;;;;;;10.20;8.48;;;5.80;91.60;;;;;;5008503;28;20474;-56
2020/12/06 05:54:21;;;;;;;22.60;10.40;;;5.80;91.60;;;;;;4989855;28;20096;-57
2020/12/06 05:56:46;;;;;;;17.85;9.90;;;5.80;91.60;;;;;;4990002;28;20120;-55
2020/12/06 05:59:12;;;;;;;17.77;9.52;;;5.80;91.60;;;;;;5019327;28;20165;-55
2020/12/06 06:01:37;;;;;;;16.88;9.70;;;5.80;91.60;;;;;;5005860;28;20067;-56
2020/12/06 06:04:03;;;;;;;14.85;8.95;;;5.80;91.60;;;;;;4991116;28;20475;-55
2020/12/06 06:06:41;;;;;;;14.57;8.68;;;5.80;91.60;;;;;;5011604;28;20037;-55
2020/12/06 06:09:07;;;;;;;13.63;9.40;;;5.80;91.60;;;;;;5008064;28;20048;-57
2020/12/06 06:11:32;;;;;;;16.80;9.98;;;5.80;91.60;;;;;;4994668;28;20045;-56
2020/12/06 06:14:08;;;;;;;10.60;8.95;;;5.80;91.70;;;;;;4993666;28;20385;-56
2020/12/06 06:16:34;;;;;;;13.55;9.57;;;5.80;91.70;;;;;;4994048;28;20034;-55
2020/12/06 06:19:01;;;;;;;12.80;8.55;;;5.80;91.70;;;;;;5026893;28;20033;-56
2020/12/06 06:21:31;;;;;;;10.13;8.95;;;5.80;91.80;;;;;;5010893;28;20021;-56
2020/12/06 06:23:58;;;;;;;13.40;9.43;;;5.80;91.80;;;;;;5009659;28;20022;-55
2020/12/06 06:26:25;;;;;;;11.65;8.73;;;5.80;91.80;;;;;;5017049;28;20466;-57
2020/12/06 06:28:52;;;;;;;12.25;8.45;;;5.80;91.80;;;;;;4994800;28;20033;-56
2020/12/06 06:31:18;;;;;;;13.52;9.45;;;5.80;91.80;;;;;;5017733;28;20068;-56
2020/12/06 06:33:43;;;;;;;17.05;9.52;;;5.80;91.80;;;;;;5017816;28;20041;-55
2020/12/06 06:36:10;;;;;;;12.13;8.38;;;5.80;91.80;;;;;;5010567;28;20033;-55
2020/12/06 06:38:45;;;;;;;13.77;9.23;;;5.80;92.10;;;;;;4999928;28;20026;-56
2020/12/06 06:41:11;;;;;;;12.38;8.90;;;5.80;91.90;;;;;;5010876;28;20025;-56
2020/12/06 06:43:40;;;;;;;14.02;9.20;;;5.80;92.00;;;;;;5026325;28;20592;-55
2020/12/06 06:46:13;;;;;;;11.38;8.27;;;5.80;92.00;;;;;;5010378;28;20101;-55
2020/12/06 06:48:39;;;;;;;11.13;8.43;;;5.80;92.00;;;;;;4993293;28;20117;-56
2020/12/06 06:51:05;;;;;;;11.27;8.90;;;5.80;92.00;;;;;;4978178;28;20121;-56
2020/12/06 06:53:31;;;;;;;14.23;10.23;;;5.80;92.00;;;;;;5000895;28;20045;-56
2020/12/06 06:56:01;;;;;;;17.10;10.35;;;5.80;92.00;;;;;;5011482;28;20034;-55
2020/12/06 06:58:29;;;;;;;14.27;10.68;;;5.80;92.00;;;;;;4996934;28;20084;-57
2020/12/06 07:01:16;;;;;;;17.73;10.10;;;5.80;92.00;;;;;;5011021;28;20103;-56
2020/12/06 07:03:43;;;;;;;16.15;11.63;;;5.80;92.00;;;;;;5011582;28;20406;-55
2020/12/06 07:06:09;;;;;;;16.05;11.82;;;5.80;92.00;;;;;;5004530;28;20161;-56
2020/12/06 07:08:34;;;;;;;17.38;10.65;;;5.80;92.00;;;;;;5011172;28;20129;-57
2020/12/06 07:11:06;;;;;;;14.80;9.75;;;5.80;92.10;;;;;;5010626;28;20537;-56
2020/12/06 07:13:32;;;;;;;16.52;10.05;;;5.90;92.10;;;;;;5010483;28;20060;-55
2020/12/06 07:15:57;;;;;;;20.80;10.07;;;5.90;92.10;;;;;;5008786;28;20025;-56
2020/12/06 07:18:23;;;;;;;20.30;10.43;;;5.90;92.10;;;;;;5013399;28;20125;-56
2020/12/06 07:20:48;;;;;;;17.13;10.05;;;5.90;92.10;;;;;;5014123;28;20109;-55
2020/12/06 07:23:14;;;;;;;18.27;10.30;;;5.90;92.10;;;;;;5010582;28;20373;-55
2020/12/06 07:25:39;;;;;;;18.85;9.85;;;5.90;92.00;;;;;;4994619;28;20034;-56
2020/12/06 07:28:05;;;;;;;18.20;10.20;;;5.90;92.10;;;;;;4997900;28;20037;-55
2020/12/06 07:30:30;;;;;;;23.67;10.10;;;5.90;92.00;;;;;;5012673;28;20042;-56
2020/12/06 07:32:56;;;;;;;17.33;10.45;;;5.90;92.00;;;;;;5013628;28;20029;-55
2020/12/06 07:35:23;;;;;;;20.20;12.07;;;5.90;92.10;;;;;;5010540;28;20201;-56
2020/12/06 07:37:57;;;;;;;14.07;10.43;;;5.90;92.00;;;;;;5010610;28;20030;-56
2020/12/06 07:40:22;;;;;;;15.45;11.45;;;5.90;92.00;;;;;;5008918;28;20407;-56
2020/12/06 07:42:48;;;;;;;14.93;10.43;;;5.90;91.90;;;;;;5008831;28;20064;-55
2020/12/06 07:45:13;;;;;;;15.35;10.52;;;5.90;91.90;;;;;;5012752;28;20497;-60
2020/12/06 07:47:39;;;;;;;19.98;10.50;;;5.90;91.90;;;;;;5008359;28;20030;-56
2020/12/06 07:50:05;;;;;;;16.85;9.30;;;5.90;91.90;;;;;;4992629;28;20073;-56
2020/12/06 07:52:35;;;;;;;17.45;10.63;;;5.90;92.10;;;;;;5007226;28;20049;-55
2020/12/06 07:55:07;;;;;;;17.15;11.10;;;5.90;92.30;;;;;;5023840;28;20477;-55
2020/12/06 07:57:39;;;;;;;18.17;10.70;;;6.00;92.40;;;;;;5011763;28;20018;-55
2020/12/06 08:00:16;;;;;;;14.82;9.95;;;6.00;92.40;;;;;;5003919;28;20033;-55
2020/12/06 08:02:45;;;;;;;17.45;11.23;;;6.00;92.60;;;;;;5011544;28;20044;-55
2020/12/06 08:05:14;;;;;;;24.38;11.38;;;6.00;92.40;;;;;;5012639;28;20105;-55
2020/12/06 08:07:44;;;;;;;12.63;9.23;;;6.00;92.50;;;;;;4973624;28;20080;-55
2020/12/06 08:10:12;;;;;;;27.23;10.88;;;6.00;92.50;;;;;;5008584;28;20037;-55
2020/12/06 08:12:38;;;;;;;42.53;11.02;;;6.00;92.50;;;;;;4990945;28;20037;-56
2020/12/06 08:15:05;;;;;;;23.60;10.65;;;6.00;92.40;;;;;;5010812;28;20417;-55
2020/12/06 08:17:49;;;;;;;19.38;10.07;;;6.00;92.30;;;;;;4975716;28;20053;-55
2020/12/06 08:20:25;;;;;;;19.08;10.05;;;6.00;92.20;;;;;;5024766;28;20548;-55
2020/12/06 08:22:55;;;;;;;15.68;9.90;;;6.00;92.10;;;;;;5006215;28;20061;-55
2020/12/06 08:25:28;;;;;;;19.13;9.88;;;6.00;92.10;;;;;;4992093;28;20053;-55
2020/12/06 08:27:54;;;;;;;17.00;9.90;;;6.00;92.10;;;;;;5009101;28;20053;-55
2020/12/06 08:30:22;;;;;;;25.42;9.82;;;6.00;92.10;;;;;;4984345;28;20432;-56
2020/12/06 08:32:55;;;;;;;15.45;10.18;;;6.00;92.10;;;;;;5021079;28;20160;-55
2020/12/06 08:35:33;;;;;;;15.50;9.80;;;5.90;92.10;;;;;;5005892;28;20890;-55
2020/12/06 08:37:58;;;;;;;15.70;9.52;;;5.90;92.10;;;;;;4992910;28;20034;-55
2020/12/06 08:40:24;;;;;;;18.58;9.52;;;5.90;92.10;;;;;;5008410;28;20088;-55
2020/12/06 08:42:56;;;;;;;13.75;10.02;;;5.90;92.10;;;;;;5008004;28;20045;-55
2020/12/06 08:45:24;;;;;;;19.05;9.68;;;5.90;92.10;;;;;;5010576;28;20025;-54
2020/12/06 08:47:49;;;;;;;10.82;9.10;;;5.90;92.10;;;;;;5008182;28;20117;-56
2020/12/06 08:50:16;;;;;;;15.85;9.77;;;5.90;92.10;;;;;;5023536;28;20101;-55
2020/12/06 08:52:42;;;;;;;14.98;10.40;;;5.90;92.10;;;;;;5009397;28;20204;-55
2020/12/06 08:55:30;;;;;;;17.90;10.18;;;5.90;92.10;;;;;;5007393;28;20489;-56
2020/12/06 08:57:56;;;;;;;15.85;9.40;;;5.90;92.10;;;;;;5016927;28;20038;-55
2020/12/06 09:00:21;;;;;;;12.02;9.98;;;5.90;92.10;;;;;;5001678;28;20029;-55
2020/12/06 09:02:47;;;;;;;15.73;9.88;;;5.90;92.10;;;;;;4998479;28;20050;-55
2020/12/06 09:05:12;;;;;;;12.32;10.07;;;5.90;92.10;;;;;;5006114;28;20077;-55
2020/12/06 09:07:42;;;;;;;15.75;9.85;;;5.90;92.10;;;;;;4999410;28;20044;-57
2020/12/06 09:10:07;;;;;;;19.50;10.50;;;5.90;92.20;;;;;;5001700;28;20046;-56
2020/12/06 09:12:36;;;;;;;12.30;9.68;;;5.90;92.20;;;;;;5005515;28;20040;-56
2020/12/06 09:15:01;;;;;;;11.10;9.48;;;5.90;92.20;;;;;;5001293;28;20038;-56
2020/12/06 09:17:27;;;;;;;13.70;9.27;;;5.90;92.20;;;;;;5006360;28;20034;-56
2020/12/06 09:19:53;;;;;;;16.95;9.52;;;5.90;92.20;;;;;;5002725;28;20398;-55
2020/12/06 09:22:18;;;;;;;14.80;10.77;;;5.90;92.30;;;;;;5007519;28;20018;-56
2020/12/06 09:24:43;;;;;;;16.98;9.98;;;6.00;92.40;;;;;;5005837;28;20437;-56
2020/12/06 09:27:09;;;;;;;18.08;10.18;;;6.00;92.30;;;;;;5005199;28;20100;-56
2020/12/06 09:29:34;;;;;;;16.85;10.43;;;6.00;92.30;;;;;;5005580;28;20068;-56
2020/12/06 09:32:00;;;;;;;25.73;10.07;;;6.00;92.40;;;;;;5004789;28;20026;-55
2020/12/06 09:34:26;;;;;;;19.52;10.77;;;6.00;92.40;;;;;;5004577;28;20108;-56
2020/12/06 09:36:51;;;;;;;29.42;10.90;;;6.00;92.50;;;;;;5011990;28;20501;-56
2020/12/06 09:39:17;;;;;;;34.15;10.80;;;6.10;92.50;;;;;;5007512;28;20033;-56
2020/12/06 09:41:45;;;;;;;47.78;11.73;;;6.10;92.30;;;;;;5013222;28;20030;-56
2020/12/06 09:44:11;;;;;;;51.15;11.98;;;6.10;92.30;;;;;;5008253;28;20650;-56
2020/12/06 09:46:36;;;;;;;34.17;12.23;;;6.20;92.60;;;;;;5010266;28;20049;-56
2020/12/06 09:49:02;;;;;;;36.90;10.98;;;6.20;92.70;;;;;;5024803;28;20026;-57
2020/12/06 09:51:27;;;;;;;43.97;10.93;;;6.20;92.60;;;;;;5029850;28;20034;-56
2020/12/06 09:53:53;;;;;;;40.17;12.13;;;6.20;92.60;;;;;;5021710;28;20069;-55
2020/12/06 09:56:24;;;;;;;31.95;10.35;;;6.30;92.60;;;;;;5009017;28;20168;-56
2020/12/06 09:58:50;;;;;;;58.13;12.93;;;6.30;92.60;;;;;;5020159;28;20022;-56
2020/12/06 10:01:15;;;;;;;72.55;15.45;;;6.30;92.60;;;;;;5007117;28;20018;-56
2020/12/06 10:03:41;;;;;;;71.68;14.25;;;6.40;92.80;;;;;;5004844;28;20053;-57
2020/12/06 10:06:06;;;;;;;103.80;16.02;;;6.40;92.80;;;;;;5019131;28;20040;-56
2020/12/06 10:08:32;;;;;;;76.38;15.45;;;6.40;92.90;;;;;;5007059;28;20078;-56
2020/12/06 10:10:57;;;;;;;113.68;18.50;;;6.40;93.00;;;;;;5009898;28;20108;-55
2020/12/06 10:13:23;;;;;;;92.43;16.08;;;6.40;93.10;;;;;;5006736;28;20111;-56
2020/12/06 10:15:48;;;;;;;80.20;15.48;;;6.50;93.10;;;;;;5023597;28;20058;-56
2020/12/06 10:18:14;;;;;;;100.80;16.73;;;6.50;93.10;;;;;;5006875;28;20104;-57
2020/12/06 10:20:39;;;;;;;267.42;25.27;;;6.50;93.10;;;;;;5007492;28;20536;-56
2020/12/06 10:23:05;;;;;;;178.18;20.27;;;6.60;93.10;;;;;;5006028;28;20541;-58
2020/12/06 10:25:30;;;;;;;99.97;16.60;;;6.60;93.20;;;;;;5009357;28;20477;-57
2020/12/06 10:27:56;;;;;;;122.80;15.95;;;6.70;93.20;;;;;;5007090;28;20033;-57
2020/12/06 10:30:22;;;;;;;89.50;14.32;;;6.70;93.10;;;;;;5006737;28;20030;-56
2020/12/06 10:32:47;;;;;;;105.05;15.07;;;6.70;93.20;;;;;;5005104;28;20065;-57
2020/12/06 10:35:13;;;;;;;127.55;15.82;;;6.80;93.20;;;;;;5008016;28;20145;-56
2020/12/06 10:37:38;;;;;;;106.47;16.02;;;6.80;93.10;;;;;;5022457;28;20143;-56
2020/12/06 10:40:04;;;;;;;140.90;15.70;;;6.90;93.20;;;;;;5024093;28;20440;-55
2020/12/06 10:42:29;;;;;;;98.93;15.00;;;6.90;93.10;;;;;;5005168;28;20477;-55
2020/12/06 10:44:55;;;;;;;130.80;16.40;;;7.00;92.90;;;;;;4984422;28;20049;-56
2020/12/06 10:47:20;;;;;;;105.93;13.90;;;7.00;93.00;;;;;;5001483;28;20051;-56
2020/12/06 10:49:46;;;;;;;124.30;14.98;;;7.00;93.00;;;;;;5014441;28;20030;-56
2020/12/06 10:52:12;;;;;;;113.25;15.82;;;7.10;93.00;;;;;;5000191;28;20029;-56
2020/12/06 10:54:38;;;;;;;115.85;15.13;;;7.10;92.90;;;;;;5005941;28;20033;-57
2020/12/06 10:57:04;;;;;;;190.25;18.58;;;7.20;93.00;;;;;;5004503;28;20089;-56
2020/12/06 10:59:29;;;;;;;112.22;13.85;;;7.20;92.90;;;;;;5005130;28;20036;-56
2020/12/06 11:01:57;;;;;;;95.85;14.30;;;7.20;92.80;;;;;;5015197;28;20050;-56
2020/12/06 11:04:22;;;;;;;98.28;13.73;;;7.20;92.80;;;;;;5020366;28;20044;-57
2020/12/06 11:06:48;;;;;;;99.20;12.93;;;7.30;92.80;;;;;;4988774;28;20117;-56
2020/12/06 11:09:13;;;;;;;104.50;13.43;;;7.30;93.10;;;;;;5003680;28;20038;-56
2020/12/06 11:11:39;;;;;;;154.80;16.17;;;7.30;92.90;;;;;;5004517;28;20102;-56
2020/12/06 11:14:04;;;;;;;116.50;16.40;;;7.30;92.80;;;;;;5001489;28;20734;-57
2020/12/06 11:16:30;;;;;;;119.43;14.30;;;7.30;92.70;;;;;;5004268;28;20545;-56
2020/12/06 11:18:55;;;;;;;130.90;15.30;;;7.40;92.80;;;;;;5001080;28;20707;-56
2020/12/06 11:21:21;;;;;;;150.38;17.25;;;7.40;93.10;;;;;;4999651;28;20040;-56
2020/12/06 11:23:47;;;;;;;108.03;13.82;;;7.50;92.90;;;;;;5004030;28;20298;-56
2020/12/06 11:26:17;;;;;;;105.35;15.45;;;7.50;92.80;;;;;;4997566;28;20037;-55
2020/12/06 11:28:42;;;;;;;89.10;13.85;;;7.50;92.70;;;;;;4981314;28;20026;-57
2020/12/06 11:31:09;;;;;;;108.18;16.25;;;7.50;92.70;;;;;;5003270;28;20026;-58
2020/12/06 11:33:34;;;;;;;89.10;13.30;;;7.50;92.80;;;;;;4983757;28;20125;-56
2020/12/06 11:36:00;;;;;;;93.45;12.77;;;7.50;92.80;;;;;;4999209;28;20057;-55
2020/12/06 11:38:25;;;;;;;84.20;12.18;;;7.50;92.80;;;;;;5000593;28;20120;-57
2020/12/06 11:40:51;;;;;;;88.88;13.05;;;7.50;92.70;;;;;;5001264;28;20674;-56
2020/12/06 11:43:16;;;;;;;91.72;12.15;;;7.50;92.70;;;;;;5002121;28;20616;-56
2020/12/06 11:45:42;;;;;;;94.88;13.10;;;7.50;92.70;;;;;;4997816;28;20037;-56
2020/12/06 11:48:07;;;;;;;85.72;12.45;;;7.60;92.80;;;;;;5001407;28;20046;-56
2020/12/06 11:50:33;;;;;;;79.10;13.95;;;7.60;92.70;;;;;;5004629;28;20030;-56
2020/12/06 11:53:02;;;;;;;85.25;12.52;;;7.60;92.60;;;;;;5000650;28;20045;-56
2020/12/06 11:55:27;;;;;;;99.80;13.02;;;7.60;92.50;;;;;;5002007;28;20512;-56
2020/12/06 11:57:53;;;;;;;133.40;15.40;;;7.60;92.50;;;;;;5005542;28;20037;-56
2020/12/06 12:00:18;;;;;;;134.80;16.92;;;7.60;92.50;;;;;;5005659;28;20047;-56
2020/12/06 12:02:44;;;;;;;117.38;14.27;;;7.60;92.50;;;;;;5006068;28;20141;-57
2020/12/06 12:05:09;;;;;;;122.43;15.48;;;7.60;92.50;;;;;;5003455;28;20044;-56
2020/12/06 12:07:35;;;;;;;121.47;18.35;;;7.60;92.60;;;;;;5002116;28;20088;-56
2020/12/06 12:10:01;;;;;;;96.72;12.70;;;7.70;92.50;;;;;;5003695;28;20084;-56
2020/12/06 12:12:26;;;;;;;151.93;17.23;;;7.70;92.50;;;;;;5002878;28;20042;-56
2020/12/06 12:14:52;;;;;;;111.88;16.95;;;7.70;92.50;;;;;;5004519;28;20034;-57
2020/12/06 12:17:17;;;;;;;116.40;15.70;;;7.70;92.50;;;;;;5003133;28;20036;-56
2020/12/06 12:19:43;;;;;;;103.80;14.20;;;7.70;92.40;;;;;;5000251;28;20053;-56
2020/12/06 12:22:08;;;;;;;111.88;15.30;;;7.80;92.40;;;;;;4996248;28;20105;-56
2020/12/06 12:24:34;;;;;;;116.00;15.48;;;7.80;92.50;;;;;;5003447;28;20021;-56
2020/12/06 12:26:59;;;;;;;130.85;15.23;;;7.80;92.40;;;;;;5000410;28;20022;-56
2020/12/06 12:29:25;;;;;;;113.63;14.77;;;7.80;92.50;;;;;;5001149;28;20504;-56
2020/12/06 12:31:51;;;;;;;215.68;20.58;;;7.80;92.60;;;;;;4999302;28;20157;-57
2020/12/06 12:34:16;;;;;;;207.38;22.55;;;7.80;92.50;;;;;;5017286;28;20212;-55